Time;durP1;ratioP1;P1;durP2;ratioP2;P2;SDS_P1;SDS_P2;PMS_P1;PMS_P2;Temp;Humidity;BMP_temperature;BMP_pressure;BME280_temperature;BME280_humidity;BME280_pressure;Samples;Min_cycle;Max_cycle;Signal;HPM_P1;HPM_P2
2022/01/02 00:00:10;;;;;;;0.70;0.70;;;;;;;6.83;62.14;101205.29;103946;1274;138049;-67
2022/01/02 00:02:59;;;;;;;0.60;0.60;;;;;;;6.92;62.14;101206.35;103719;1274;94389;-66
2022/01/02 00:05:30;;;;;;;0.60;0.60;;;;;;;6.92;62.04;101203.87;103476;1274;138870;-65
2022/01/02 00:08:02;;;;;;;0.60;0.60;;;;;;;6.85;62.27;101199.80;103794;1274;108346;-66
2022/01/02 00:10:52;;;;;;;0.70;0.70;;;;;;;6.78;62.29;101196.79;103608;1274;138209;-67
2022/01/02 00:13:36;;;;;;;0.60;0.60;;;;;;;6.83;62.55;101197.68;103660;1274;94415;-67
2022/01/02 00:16:06;;;;;;;0.60;0.60;;;;;;;6.88;62.22;101198.05;103744;1274;138673;-68
2022/01/02 00:18:36;;;;;;;0.70;0.70;;;;;;;6.81;62.55;101202.27;103746;1274;108368;-66
2022/01/02 00:21:08;;;;;;;0.80;0.80;;;;;;;6.76;62.58;101203.31;103757;1274;94817;-66
2022/01/02 00:23:49;;;;;;;0.70;0.70;;;;;;;6.70;62.74;101207.18;103557;1274;137859;-67
2022/01/02 00:26:18;;;;;;;0.60;0.60;;;;;;;6.63;63.14;101207.70;103738;1274;108996;-68
2022/01/02 00:28:46;;;;;;;0.60;0.60;;;;;;;6.62;63.28;101200.09;103678;1274;137569;-67
2022/01/02 00:31:15;;;;;;;0.70;0.70;;;;;;;6.57;63.39;101194.98;103737;1274;95013;-67
2022/01/02 00:33:44;;;;;;;0.70;0.70;;;;;;;6.55;63.52;101195.85;103820;1274;94884;-67
2022/01/02 00:36:12;;;;;;;0.60;0.60;;;;;;;6.49;63.95;101202.88;103604;1274;138150;-67
2022/01/02 00:38:39;;;;;;;0.60;0.60;;;;;;;6.48;64.31;101197.95;103689;1274;108349;-66
2022/01/02 00:41:08;;;;;;;0.60;0.60;;;;;;;6.52;63.89;101196.02;103643;1274;138078;-66
2022/01/02 00:43:47;;;;;;;0.80;0.80;;;;;;;6.44;64.17;101196.52;103779;1274;95456;-66
2022/01/02 00:46:16;;;;;;;0.70;0.70;;;;;;;6.46;64.45;101191.59;103662;1274;138279;-67
2022/01/02 00:48:47;;;;;;;0.60;0.60;;;;;;;6.40;64.29;101187.33;103757;1274;108399;-66
2022/01/02 00:51:47;;;;;;;0.60;0.60;;;;;;;6.37;64.17;101188.03;103856;1274;94351;-66
2022/01/02 00:54:17;;;;;;;0.70;0.70;;;;;;;6.28;64.87;101185.00;103534;1275;138511;-66
2022/01/02 00:56:46;;;;;;;0.70;0.70;;;;;;;6.30;64.95;101191.54;103745;1274;108588;-66
2022/01/02 00:59:30;;;;;;;0.60;0.60;;;;;;;6.40;64.76;101195.61;103576;1274;138399;-65
2022/01/02 01:02:03;;;;;;;0.60;0.60;;;;;;;6.37;64.54;101183.80;103546;1274;94541;-68
2022/01/02 01:04:37;;;;;;;0.70;0.70;;;;;;;6.34;64.79;101180.44;103544;1274;138099;-65
2022/01/02 01:07:05;;;;;;;0.60;0.60;;;;;;;6.39;64.80;101175.85;103737;1274;108853;-67
2022/01/02 01:09:33;;;;;;;0.60;0.60;;;;;;;6.41;64.60;101175.17;103690;1275;108333;-67
2022/01/02 01:12:03;;;;;;;0.70;0.70;;;;;;;6.41;64.83;101169.52;103628;1274;137583;-68
2022/01/02 01:14:31;;;;;;;0.70;0.70;;;;;;;6.41;64.66;101165.81;103685;1274;94320;-66
2022/01/02 01:16:59;;;;;;;0.70;0.70;;;;;;;6.40;64.49;101164.92;103859;1274;137738;-66
2022/01/02 01:19:27;;;;;;;0.70;0.70;;;;;;;6.33;64.83;101165.45;103628;1275;108839;-67
2022/01/02 01:21:56;;;;;;;0.70;0.70;;;;;;;6.31;64.97;101161.20;103730;1274;94379;-67
2022/01/02 01:24:24;;;;;;;0.70;0.70;;;;;;;6.28;64.92;101163.13;103515;1275;137606;-66
2022/01/02 01:26:53;;;;;;;0.70;0.70;;;;;;;6.27;65.22;101156.96;103685;1274;108738;-67
2022/01/02 01:29:21;;;;;;;0.70;0.70;;;;;;;6.22;65.17;101157.64;103521;1274;138291;-66
2022/01/02 01:31:50;;;;;;;0.70;0.70;;;;;;;6.18;65.57;101158.33;103746;1274;94577;-66
2022/01/02 01:34:18;;;;;;;0.80;0.80;;;;;;;6.14;65.97;101153.18;103715;1274;137689;-66
2022/01/02 01:36:46;;;;;;;0.80;0.80;;;;;;;6.08;65.99;101152.28;103607;1277;109008;-65
2022/01/02 01:39:13;;;;;;;0.70;0.70;;;;;;;6.05;66.38;101149.29;103703;1274;109538;-66
2022/01/02 01:41:41;;;;;;;0.70;0.70;;;;;;;6.06;66.50;101135.71;103677;1274;137831;-67
2022/01/02 01:46:41;;;;;;;0.70;0.70;;;;;;;6.05;66.69;101112.61;103552;1274;137375;-68
2022/01/02 01:49:27;;;;;;;0.70;0.70;;;;;;;5.98;66.68;101113.11;103718;1274;108328;-64
2022/01/02 01:51:58;;;;;;;0.70;0.70;;;;;;;5.97;66.99;101107.11;103719;1274;95603;-67
2022/01/02 01:54:26;;;;;;;0.70;0.70;;;;;;;6.04;66.85;101112.45;103720;1274;138045;-67
2022/01/02 01:56:54;;;;;;;0.70;0.70;;;;;;;6.04;66.80;101110.50;103644;1274;108053;-66
2022/01/02 01:59:24;;;;;;;0.70;0.70;;;;;;;6.03;66.81;101104.86;103512;1274;138389;-67
2022/01/02 02:01:53;;;;;;;0.70;0.70;;;;;;;6.05;67.00;101102.21;103709;1274;94449;-67
2022/01/02 02:04:21;;;;;;;0.70;0.70;;;;;;;6.09;66.93;101098.34;103526;1275;138845;-64
2022/01/02 02:06:49;;;;;;;0.70;0.70;;;;;;;6.03;66.95;101097.09;103680;1274;108844;-67
2022/01/02 02:09:17;;;;;;;0.80;0.80;;;;;;;6.02;66.91;101096.39;103593;1275;108501;-67
2022/01/02 02:11:46;;;;;;;0.80;0.80;;;;;;;6.00;66.95;101091.98;103676;1274;138317;-66
2022/01/02 02:14:15;;;;;;;0.70;0.70;;;;;;;6.02;67.38;101090.21;103790;1274;95531;-65
2022/01/02 02:16:43;;;;;;;0.70;0.70;;;;;;;6.01;67.16;101088.80;104133;1274;137995;-66
2022/01/02 02:19:14;;;;;;;0.70;0.70;;;;;;;5.99;67.68;101080.50;103739;1274;109376;-67
2022/01/02 02:21:42;;;;;;;0.70;0.70;;;;;;;6.02;67.60;101075.58;103664;1274;118171;-67
2022/01/02 02:24:10;;;;;;;0.70;0.70;;;;;;;5.97;67.88;101071.85;103526;1275;137984;-67
2022/01/02 02:26:38;;;;;;;0.60;0.60;;;;;;;5.92;68.23;101066.53;103626;1275;108640;-65
2022/01/02 02:29:07;;;;;;;0.70;0.70;;;;;;;5.90;68.51;101071.27;103567;1274;138093;-66
2022/01/02 02:31:34;;;;;;;0.70;0.70;;;;;;;5.95;68.36;101065.48;103708;1274;94311;-67
2022/01/02 02:34:03;;;;;;;0.70;0.70;;;;;;;6.02;68.15;101063.77;103631;1274;94584;-67
2022/01/02 02:36:31;;;;;;;0.60;0.60;;;;;;;6.03;68.37;101057.78;103569;1275;137803;-67
2022/01/02 02:38:58;;;;;;;0.70;0.70;;;;;;;6.05;68.19;101056.55;103665;1274;109103;-67
2022/01/02 02:41:32;;;;;;;0.70;0.70;;;;;;;6.03;68.52;101050.74;103624;1274;138618;-68
2022/01/02 02:44:20;;;;;;;0.70;0.70;;;;;;;6.08;68.53;101052.86;103602;1274;94405;-67
2022/01/02 02:49:39;;;;;;;0.70;0.70;;;;;;;6.12;68.36;101059.57;103628;1274;108581;-67
2022/01/02 02:52:17;;;;;;;0.70;0.70;;;;;;;6.08;68.43;101054.44;103750;1274;94368;-67
2022/01/02 02:54:47;;;;;;;0.70;0.70;;;;;;;6.03;68.54;101057.63;104021;1275;138343;-67
2022/01/02 02:57:17;;;;;;;0.60;0.60;;;;;;;6.03;68.72;101053.90;103803;1274;108529;-67
2022/01/02 02:59:45;;;;;;;0.70;0.70;;;;;;;6.10;68.70;101047.23;103545;1274;138109;-66
2022/01/02 03:02:13;;;;;;;0.70;0.70;;;;;;;6.15;68.55;101040.02;103635;1277;95395;-65
2022/01/02 03:04:43;;;;;;;0.60;0.60;;;;;;;6.19;68.50;101034.38;103912;1274;138128;-67
2022/01/02 03:07:11;;;;;;;0.60;0.60;;;;;;;6.22;68.55;101036.67;103675;1274;109166;-67
2022/01/02 03:09:46;;;;;;;0.60;0.60;;;;;;;6.19;68.69;101038.96;103625;1274;107965;-68
2022/01/02 03:12:14;;;;;;;0.60;0.60;;;;;;;6.18;68.94;101040.55;103744;1277;140832;-67
2022/01/02 03:14:46;;;;;;;0.60;0.60;;;;;;;6.24;68.85;101039.48;103713;1274;94789;-67
2022/01/02 03:17:15;;;;;;;0.70;0.70;;;;;;;6.17;68.92;101036.66;103649;1274;137824;-67
2022/01/02 03:19:43;;;;;;;0.70;0.70;;;;;;;6.06;69.30;101025.89;103569;1277;108414;-67
2022/01/02 03:22:13;;;;;;;0.70;0.70;;;;;;;6.06;69.76;101020.60;103652;1274;94732;-65
2022/01/02 03:24:41;;;;;;;0.60;0.60;;;;;;;6.07;69.42;101005.62;103595;1274;137753;-66
2022/01/02 03:27:09;;;;;;;0.70;0.70;;;;;;;6.07;69.72;101000.69;103637;1274;108819;-68
2022/01/02 03:29:36;;;;;;;0.70;0.70;;;;;;;6.04;69.61;100996.27;103590;1274;137866;-66
2022/01/02 03:32:04;;;;;;;0.70;0.70;;;;;;;6.05;69.81;100992.22;103690;1274;94795;-68
2022/01/02 03:34:33;;;;;;;0.60;0.60;;;;;;;6.08;69.77;100991.16;103592;1275;138734;-67
2022/01/02 03:37:01;;;;;;;0.80;0.80;;;;;;;6.05;69.78;100980.59;103647;1275;109095;-65
2022/01/02 03:39:30;;;;;;;0.70;0.70;;;;;;;5.98;70.18;100980.56;103610;1274;108573;-68
2022/01/02 03:41:59;;;;;;;0.70;0.70;;;;;;;5.94;70.52;100978.23;103637;1274;141112;-67
2022/01/02 03:44:27;;;;;;;0.60;0.60;;;;;;;5.88;70.78;100975.23;103743;1274;94519;-65
2022/01/02 03:46:55;;;;;;;0.60;0.60;;;;;;;5.85;70.70;100966.23;103511;1275;138798;-66
2022/01/02 03:49:23;;;;;;;0.70;0.70;;;;;;;5.75;71.02;100958.80;103641;1274;108250;-67
2022/01/02 03:51:51;;;;;;;0.70;0.70;;;;;;;5.73;70.91;100956.34;103665;1274;94312;-67
2022/01/02 03:54:19;;;;;;;0.70;0.70;;;;;;;5.76;71.22;100954.58;103627;1274;138184;-67
2022/01/02 03:56:50;;;;;;;0.70;0.70;;;;;;;5.80;71.08;100951.42;103640;1274;108858;-67
2022/01/02 03:59:17;;;;;;;0.70;0.70;;;;;;;5.71;71.20;100954.04;103565;1274;138545;-67
2022/01/02 04:01:45;;;;;;;0.70;0.70;;;;;;;5.68;71.40;100953.50;103702;1274;94474;-65
2022/01/02 04:04:13;;;;;;;0.90;0.90;;;;;;;5.70;71.21;100945.92;103893;1274;94229;-66
2022/01/02 04:06:43;;;;;;;0.70;0.70;;;;;;;5.70;71.28;100939.41;103568;1274;139402;-67
2022/01/02 04:09:10;;;;;;;0.70;0.70;;;;;;;5.66;71.36;100939.23;103997;1274;108498;-65
2022/01/02 04:11:38;;;;;;;0.80;0.80;;;;;;;5.62;71.60;100933.92;103586;1274;137595;-65
2022/01/02 04:14:06;;;;;;;0.70;0.70;;;;;;;5.62;71.54;100935.34;103645;1274;94388;-66
2022/01/02 04:16:34;;;;;;;0.70;0.70;;;;;;;5.68;71.44;100926.91;103480;1274;141792;-67
2022/01/02 04:19:02;;;;;;;0.70;0.70;;;;;;;5.72;71.39;100924.80;103690;1274;108472;-67
2022/01/02 04:21:30;;;;;;;0.70;0.70;;;;;;;5.69;71.32;100920.73;103959;1274;94555;-66
2022/01/02 04:23:58;;;;;;;0.70;0.70;;;;;;;5.63;71.34;100910.51;103964;1274;139945;-67
2022/01/02 04:26:26;;;;;;;0.80;0.80;;;;;;;5.63;71.57;100902.41;103696;1274;108743;-67
2022/01/02 04:28:54;;;;;;;0.80;0.80;;;;;;;5.62;71.57;100892.70;103752;1274;138429;-67
2022/01/02 04:31:22;;;;;;;0.80;0.80;;;;;;;5.61;71.75;100885.30;103701;1274;94384;-67
2022/01/02 04:33:50;;;;;;;0.90;0.90;;;;;;;5.62;71.74;100875.27;104026;1274;94311;-67
2022/01/02 04:36:19;;;;;;;0.70;0.70;;;;;;;5.63;71.69;100870.35;103686;1274;138643;-65
2022/01/02 04:38:47;;;;;;;0.70;0.70;;;;;;;5.65;71.75;100869.46;103670;1274;107346;-67
2022/01/02 04:41:15;;;;;;;0.70;0.70;;;;;;;5.64;71.82;100856.42;103555;1274;138467;-67
2022/01/02 04:43:43;;;;;;;0.80;0.80;;;;;;;5.61;71.95;100846.91;103713;1274;94671;-68
2022/01/02 04:46:11;;;;;;;0.80;0.80;;;;;;;5.65;71.96;100837.05;103723;1274;108910;-67
2022/01/02 04:48:39;;;;;;;0.70;0.70;;;;;;;5.67;71.94;100831.24;103625;1274;138236;-67
2022/01/02 04:51:07;;;;;;;0.70;0.70;;;;;;;5.61;72.08;100822.08;103620;1275;94711;-66
2022/01/02 04:53:37;;;;;;;0.70;0.70;;;;;;;5.59;72.20;100823.48;103536;1274;137959;-67
2022/01/02 04:56:05;;;;;;;0.70;0.70;;;;;;;5.58;72.43;100817.48;103635;1274;108997;-67
2022/01/02 04:58:33;;;;;;;0.70;0.70;;;;;;;5.60;72.29;100814.85;103551;1274;139026;-66
2022/01/02 05:01:01;;;;;;;0.70;0.70;;;;;;;5.66;72.26;100816.09;103701;1274;94426;-66
2022/01/02 05:03:29;;;;;;;0.70;0.70;;;;;;;5.70;72.24;100809.05;103696;1274;94581;-65
2022/01/02 05:05:57;;;;;;;0.70;0.70;;;;;;;5.65;72.61;100799.71;103538;1274;137326;-68
2022/01/02 05:08:25;;;;;;;0.70;0.70;;;;;;;5.65;72.35;100802.02;103679;1274;106908;-67
2022/01/02 05:10:53;;;;;;;0.70;0.70;;;;;;;5.66;72.60;100804.29;103564;1274;139152;-67
2022/01/02 05:13:23;;;;;;;0.70;0.70;;;;;;;5.72;72.68;100810.45;103668;1274;94388;-67
2022/01/02 05:15:51;;;;;;;0.70;0.70;;;;;;;5.81;72.46;100809.74;103724;1274;109264;-65
2022/01/02 05:18:20;;;;;;;0.70;0.70;;;;;;;5.83;72.74;100812.21;103584;1274;138247;-65
2022/01/02 05:20:48;;;;;;;0.70;0.70;;;;;;;5.92;72.58;100811.51;104098;1274;94804;-67
2022/01/02 05:23:16;;;;;;;0.70;0.70;;;;;;;5.99;72.30;100810.66;103547;1274;138259;-67
2022/01/02 05:25:45;;;;;;;0.60;0.60;;;;;;;6.04;72.46;100810.13;103653;1274;108990;-65
2022/01/02 05:28:14;;;;;;;0.70;0.70;;;;;;;6.00;72.64;100800.25;104048;1275;108460;-67
2022/01/02 05:30:42;;;;;;;0.70;0.70;;;;;;;6.02;72.80;100794.95;103944;1274;137804;-66
2022/01/02 05:33:11;;;;;;;0.70;0.70;;;;;;;6.11;72.90;100782.79;103640;1274;94744;-68
2022/01/02 05:35:39;;;;;;;0.60;0.60;;;;;;;6.17;72.68;100774.84;103542;1277;138923;-63
2022/01/02 05:38:09;;;;;;;0.60;0.60;;;;;;;6.20;72.57;100762.67;103556;1274;108912;-67
2022/01/02 05:40:36;;;;;;;0.60;0.60;;;;;;;6.14;72.95;100759.69;103557;1275;138527;-66
2022/01/02 05:43:06;;;;;;;0.70;0.70;;;;;;;6.06;73.36;100758.64;103666;1274;94686;-65
2022/01/02 05:45:35;;;;;;;0.70;0.70;;;;;;;6.05;73.72;100754.76;103624;1274;108833;-67
2022/01/02 05:48:05;;;;;;;0.70;0.70;;;;;;;6.09;73.46;100748.77;103354;1277;138431;-67
2022/01/02 05:50:33;;;;;;;0.60;0.60;;;;;;;6.13;73.51;100748.23;103680;1274;95224;-68
2022/01/02 05:53:01;;;;;;;0.60;0.60;;;;;;;6.18;73.52;100746.11;103587;1274;138492;-67
2022/01/02 05:55:29;;;;;;;0.60;0.60;;;;;;;6.22;73.47;100732.33;104043;1274;108794;-67
2022/01/02 05:57:57;;;;;;;0.60;0.60;;;;;;;6.16;73.77;100724.59;103606;1274;108315;-67
2022/01/02 06:00:26;;;;;;;0.60;0.60;;;;;;;6.10;74.23;100714.21;103588;1274;138852;-67
2022/01/02 06:02:57;;;;;;;0.60;0.60;;;;;;;6.02;74.86;100707.02;103540;1275;95211;-67
2022/01/02 06:05:25;;;;;;;0.70;0.70;;;;;;;6.02;75.11;100712.65;103564;1274;138560;-65
2022/01/02 06:07:53;;;;;;;0.60;0.60;;;;;;;6.08;75.22;100703.48;103612;1277;109407;-66
2022/01/02 06:10:21;;;;;;;0.70;0.70;;;;;;;6.07;75.30;100707.52;103657;1274;94466;-67
2022/01/02 06:12:49;;;;;;;0.70;0.70;;;;;;;6.03;75.56;100706.83;103552;1274;137876;-67
2022/01/02 06:15:17;;;;;;;0.70;0.70;;;;;;;6.05;75.68;100702.95;103697;1274;108991;-67
2022/01/02 06:17:45;;;;;;;0.70;0.70;;;;;;;6.09;75.54;100703.30;103462;1274;138437;-68
2022/01/02 06:20:13;;;;;;;0.70;0.70;;;;;;;6.11;75.27;100693.41;103743;1274;94410;-68
2022/01/02 06:22:41;;;;;;;0.60;0.60;;;;;;;6.12;75.60;100689.00;103514;1274;139159;-68
2022/01/02 06:25:09;;;;;;;0.60;0.60;;;;;;;6.06;75.99;100688.66;103688;1275;109316;-67
2022/01/02 06:27:36;;;;;;;0.60;0.60;;;;;;;6.08;75.82;100684.79;103568;1274;108353;-66
2022/01/02 06:30:05;;;;;;;0.70;0.70;;;;;;;6.08;76.11;100690.06;103584;1274;138791;-67
2022/01/02 06:32:33;;;;;;;0.60;0.60;;;;;;;6.16;75.71;100688.46;103813;1274;94436;-67
2022/01/02 06:35:01;;;;;;;0.60;0.60;;;;;;;6.24;75.53;100677.49;103506;1275;139721;-68
2022/01/02 06:37:29;;;;;;;0.60;0.60;;;;;;;6.23;75.75;100670.10;103629;1274;108409;-67
2022/01/02 06:39:57;;;;;;;0.60;0.60;;;;;;;6.22;75.95;100662.16;103689;1274;94293;-67
2022/01/02 06:42:26;;;;;;;0.60;0.60;;;;;;;6.23;75.97;100659.87;103544;1274;139080;-66
2022/01/02 06:44:53;;;;;;;0.70;0.70;;;;;;;6.29;75.88;100651.73;103613;1274;109325;-66
2022/01/02 06:47:21;;;;;;;0.60;0.60;;;;;;;6.31;75.93;100653.31;103527;1274;138528;-67
2022/01/02 06:49:50;;;;;;;0.60;0.60;;;;;;;6.32;75.89;100656.48;103849;1274;94605;-66
2022/01/02 06:52:18;;;;;;;0.50;0.50;;;;;;;6.33;75.87;100648.89;103638;1274;94731;-67
2022/01/02 06:54:46;;;;;;;0.60;0.60;;;;;;;6.29;76.28;100639.73;103546;1274;138631;-68
2022/01/02 06:57:14;;;;;;;0.60;0.60;;;;;;;6.28;76.44;100637.10;103579;1274;108311;-65
2022/01/02 06:59:42;;;;;;;0.60;0.60;;;;;;;6.31;76.38;100633.73;103580;1274;138450;-65
2022/01/02 07:02:10;;;;;;;0.70;0.70;;;;;;;6.34;76.45;100621.73;103655;1275;94296;-64
2022/01/02 07:04:38;;;;;;;0.60;0.60;;;;;;;6.38;76.42;100627.17;103722;1274;139575;-66
2022/01/02 07:07:06;;;;;;;0.60;0.60;;;;;;;6.41;76.30;100629.10;103543;1275;108573;-66
2022/01/02 07:09:34;;;;;;;0.60;0.60;;;;;;;6.42;76.36;100628.04;103714;1274;95987;-69
2022/01/02 07:12:03;;;;;;;0.60;0.60;;;;;;;6.43;76.24;100622.73;103687;1274;137604;-67
2022/01/02 07:14:30;;;;;;;0.60;0.60;;;;;;;6.45;76.13;100621.48;103811;1272;107701;-68
2022/01/02 07:16:58;;;;;;;0.60;0.60;;;;;;;6.49;76.43;100625.00;103519;1274;138601;-68
2022/01/02 07:19:26;;;;;;;0.60;0.60;;;;;;;6.50;76.38;100621.46;103733;1274;94449;-65
2022/01/02 07:21:58;;;;;;;0.60;0.60;;;;;;;6.49;76.17;100624.12;103687;1274;94629;-68
2022/01/02 07:24:26;;;;;;;0.60;0.60;;;;;;;6.52;76.35;100620.73;103620;1274;137927;-68
2022/01/02 07:26:54;;;;;;;0.60;0.60;;;;;;;6.49;76.58;100622.70;103579;1274;109170;-66
2022/01/02 07:29:21;;;;;;;0.60;0.60;;;;;;;6.52;76.64;100616.68;103565;1274;138183;-68
2022/01/02 07:31:49;;;;;;;0.60;0.60;;;;;;;6.52;76.44;100612.80;103655;1274;95774;-66
2022/01/02 07:34:17;;;;;;;0.70;0.70;;;;;;;6.56;76.69;100609.79;103588;1277;107900;-65
2022/01/02 07:36:44;;;;;;;0.60;0.60;;;;;;;6.64;76.52;100604.27;103893;1274;138559;-67
2022/01/02 07:39:13;;;;;;;0.60;0.60;;;;;;;6.70;76.37;100601.04;104000;1274;94299;-67
2022/01/02 07:41:41;;;;;;;0.60;0.60;;;;;;;6.78;76.25;100588.63;103724;1274;138336;-68
2022/01/02 07:44:09;;;;;;;0.70;0.70;;;;;;;6.80;75.92;100572.73;103633;1274;109009;-69
2022/01/02 07:46:37;;;;;;;0.60;0.60;;;;;;;6.79;76.14;100570.98;103579;1274;139102;-67
2022/01/02 07:49:05;;;;;;;0.70;0.70;;;;;;;6.81;76.32;100572.02;103755;1274;94808;-67
2022/01/02 07:51:33;;;;;;;0.60;0.60;;;;;;;6.84;76.27;100561.23;103698;1274;94384;-67
2022/01/02 07:54:00;;;;;;;0.60;0.60;;;;;;;6.83;76.50;100565.13;103626;1274;137938;-67
2022/01/02 07:56:28;;;;;;;0.60;0.60;;;;;;;6.93;76.35;100549.68;103648;1274;108347;-67
2022/01/02 07:58:58;;;;;;;0.50;0.50;;;;;;;7.04;76.09;100537.06;103660;1274;138718;-68
2022/01/02 08:01:26;;;;;;;0.50;0.50;;;;;;;7.07;75.95;100526.24;104110;1274;94912;-68
2022/01/02 08:03:55;;;;;;;0.60;0.60;;;;;;;7.09;76.44;100533.64;103955;1274;108898;-66
2022/01/02 08:06:22;;;;;;;0.60;0.60;;;;;;;7.17;76.36;100526.86;103515;1274;138370;-67
2022/01/02 08:08:51;;;;;;;0.60;0.60;;;;;;;7.16;76.30;100525.27;103804;1274;94366;-70
2022/01/02 08:11:23;;;;;;;0.60;0.60;;;;;;;7.25;76.53;100519.02;103704;1274;138218;-67
2022/01/02 08:14:12;;;;;;;0.50;0.50;;;;;;;7.29;76.30;100515.24;103656;1274;108782;-66
2022/01/02 08:16:40;;;;;;;0.50;0.50;;;;;;;7.26;76.49;100504.87;103601;1274;138037;-68
2022/01/02 08:19:08;;;;;;;0.60;0.60;;;;;;;7.27;76.58;100508.74;103686;1274;94356;-65
2022/01/02 08:21:36;;;;;;;0.50;0.50;;;;;;;7.32;76.59;100514.33;103625;1274;94849;-68
2022/01/02 08:24:04;;;;;;;0.50;0.40;;;;;;;7.36;76.78;100508.28;103651;1274;138265;-67
2022/01/02 08:26:31;;;;;;;0.50;0.50;;;;;;;7.42;77.12;100500.09;103640;1274;108303;-67
2022/01/02 08:29:00;;;;;;;0.50;0.50;;;;;;;7.42;76.83;100506.45;103548;1274;137965;-67
2022/01/02 08:31:29;;;;;;;0.60;0.60;;;;;;;7.44;77.10;100511.91;103703;1274;94446;-66
2022/01/02 08:33:57;;;;;;;0.50;0.50;;;;;;;7.51;77.14;100514.65;103673;1274;108768;-66
2022/01/02 08:36:25;;;;;;;0.50;0.50;;;;;;;7.56;76.85;100508.23;103541;1274;138451;-65
2022/01/02 08:38:53;;;;;;;0.50;0.50;;;;;;;7.61;76.97;100491.91;103696;1274;95305;-66
2022/01/02 08:41:21;;;;;;;0.50;0.50;;;;;;;7.63;77.17;100485.52;103543;1274;138116;-66
2022/01/02 08:43:48;;;;;;;0.50;0.50;;;;;;;7.70;76.90;100488.61;103692;1274;107123;-67
2022/01/02 08:46:16;;;;;;;0.50;0.40;;;;;;;7.78;76.79;100487.61;103599;1274;107334;-66
2022/01/02 08:48:44;;;;;;;0.50;0.50;;;;;;;7.83;76.77;100489.67;103543;1274;138923;-70
2022/01/02 08:51:12;;;;;;;0.50;0.40;;;;;;;7.88;76.54;100493.33;103564;1277;94727;-66
2022/01/02 08:53:40;;;;;;;0.50;0.50;;;;;;;7.98;76.74;100496.90;103649;1274;138802;-66
2022/01/02 08:56:08;;;;;;;0.40;0.40;;;;;;;8.05;76.34;100498.38;103607;1274;107837;-67
2022/01/02 08:58:36;;;;;;;0.50;0.40;;;;;;;8.10;76.45;100489.30;103628;1274;139078;-68
2022/01/02 09:01:04;;;;;;;0.50;0.40;;;;;;;8.09;76.51;100480.47;103667;1274;94765;-67
2022/01/02 09:03:33;;;;;;;0.50;0.40;;;;;;;8.12;76.57;100478.65;103808;1274;108823;-68
2022/01/02 09:06:01;;;;;;;0.50;0.40;;;;;;;8.18;76.43;100487.40;103646;1274;139097;-67
2022/01/02 09:08:29;;;;;;;0.50;0.40;;;;;;;8.20;76.65;100478.17;103715;1274;94321;-68
2022/01/02 09:10:57;;;;;;;0.50;0.40;;;;;;;8.23;76.80;100464.35;103577;1274;138151;-68
2022/01/02 09:13:26;;;;;;;0.40;0.40;;;;;;;8.23;76.88;100450.19;103677;1274;109256;-66
2022/01/02 09:15:54;;;;;;;0.50;0.40;;;;;;;8.30;76.93;100441.94;103868;1274;108370;-69
2022/01/02 09:18:22;;;;;;;0.40;0.40;;;;;;;8.36;76.89;100430.70;103670;1274;138925;-68
2022/01/02 09:20:51;;;;;;;0.50;0.50;;;;;;;8.39;76.81;100414.38;103573;1274;94817;-68
2022/01/02 09:23:19;;;;;;;0.40;0.40;;;;;;;8.45;76.74;100416.23;103513;1274;138446;-67
2022/01/02 09:25:46;;;;;;;0.50;0.40;;;;;;;8.50;77.27;100411.92;103601;1274;108350;-70
2022/01/02 09:28:14;;;;;;;0.50;0.40;;;;;;;8.55;76.96;100416.80;103642;1274;94254;-69
2022/01/02 09:30:42;;;;;;;0.40;0.40;;;;;;;8.56;77.04;100410.95;103561;1274;138347;-68
2022/01/02 09:33:10;;;;;;;0.50;0.40;;;;;;;8.57;77.21;100402.23;103680;1274;109276;-68
2022/01/02 09:35:41;;;;;;;0.50;0.40;;;;;;;8.64;77.30;100392.21;103533;1274;139040;-68
2022/01/02 09:38:09;;;;;;;0.40;0.40;;;;;;;8.75;76.86;100386.01;103592;1274;94372;-68
2022/01/02 09:40:36;;;;;;;0.40;0.40;;;;;;;8.78;76.76;100378.85;103527;1274;138507;-68
2022/01/02 09:43:04;;;;;;;0.40;0.40;;;;;;;8.82;76.80;100377.52;103682;1274;108802;-67
2022/01/02 09:45:33;;;;;;;0.40;0.40;;;;;;;8.86;76.72;100371.06;103678;1274;107298;-68
2022/01/02 09:48:04;;;;;;;0.40;0.40;;;;;;;8.89;76.58;100363.41;103623;1274;141047;-66
2022/01/02 09:50:33;;;;;;;0.50;0.40;;;;;;;8.93;76.61;100357.30;103603;1274;94329;-66
2022/01/02 09:53:00;;;;;;;0.40;0.40;;;;;;;8.96;76.58;100346.97;103484;1275;139127;-66
2022/01/02 09:55:28;;;;;;;0.40;0.40;;;;;;;9.01;76.46;100343.48;103614;1274;109118;-67
2022/01/02 09:57:59;;;;;;;0.50;0.40;;;;;;;9.07;76.45;100332.59;103728;1274;94390;-67
2022/01/02 10:00:28;;;;;;;0.40;0.30;;;;;;;9.07;76.57;100317.52;103526;1274;138719;-65
2022/01/02 10:02:58;;;;;;;0.50;0.40;;;;;;;9.08;76.51;100303.15;103910;1274;109734;-67
2022/01/02 10:05:28;;;;;;;0.40;0.30;;;;;;;9.05;76.65;100296.31;103690;1274;139097;-66
2022/01/02 10:07:57;;;;;;;0.50;0.40;;;;;;;9.10;76.60;100283.83;103958;1274;94857;-66
2022/01/02 10:10:33;;;;;;;0.50;0.40;;;;;;;9.16;76.49;100276.95;103565;1274;94614;-68
2022/01/02 10:13:03;;;;;;;0.40;0.30;;;;;;;9.19;76.42;100262.16;103546;1274;138192;-67
2022/01/02 10:15:32;;;;;;;0.40;0.30;;;;;;;9.23;76.25;100257.31;103825;1274;109121;-68
2022/01/02 10:18:07;;;;;;;0.40;0.30;;;;;;;9.27;76.13;100254.40;103547;1274;138497;-67
2022/01/02 10:20:40;;;;;;;0.40;0.30;;;;;;;9.23;76.29;100240.66;103586;1274;94801;-69
2022/01/02 10:23:19;;;;;;;0.40;0.30;;;;;;;9.18;76.38;100222.88;103534;1274;138513;-66
2022/01/02 10:25:52;;;;;;;0.40;0.40;;;;;;;9.21;76.38;100216.61;103606;1274;108681;-68
2022/01/02 10:28:27;;;;;;;0.40;0.30;;;;;;;9.25;76.34;100210.15;103637;1274;94813;-68
2022/01/02 10:31:00;;;;;;;0.40;0.30;;;;;;;9.34;76.18;100204.95;103621;1274;138145;-67
2022/01/02 10:33:44;;;;;;;0.40;0.30;;;;;;;9.33;75.98;100205.70;103835;1274;108837;-67
2022/01/02 10:36:13;;;;;;;0.40;0.30;;;;;;;9.32;76.30;100210.69;103507;1274;138346;-67
2022/01/02 10:38:59;;;;;;;0.40;0.40;;;;;;;9.31;76.34;100216.17;103704;1274;95563;-65
2022/01/02 10:41:38;;;;;;;0.40;0.30;;;;;;;9.28;76.57;100205.81;103499;1274;138821;-68
2022/01/02 10:44:35;;;;;;;0.40;0.40;;;;;;;9.25;76.63;100192.06;103627;1274;108721;-68
2022/01/02 10:47:15;;;;;;;0.40;0.40;;;;;;;9.29;76.76;100188.06;103481;1274;138989;-67
2022/01/02 10:49:48;;;;;;;0.40;0.40;;;;;;;9.34;76.56;100189.88;103551;1274;94367;-68
2022/01/02 10:52:19;;;;;;;0.40;0.30;;;;;;;9.41;76.45;100180.33;103967;1274;94344;-68
2022/01/02 10:54:48;;;;;;;0.40;0.40;;;;;;;9.51;76.33;100174.77;103510;1274;137181;-68
2022/01/02 10:57:15;;;;;;;0.40;0.30;;;;;;;9.59;75.98;100168.55;106429;1274;108341;-68
2022/01/02 10:59:44;;;;;;;0.40;0.30;;;;;;;9.63;75.81;100161.87;103435;1274;138473;-68
2022/01/02 11:02:14;;;;;;;0.40;0.30;;;;;;;9.70;75.66;100152.80;103608;1274;94350;-68
2022/01/02 11:04:54;;;;;;;0.40;0.30;;;;;;;9.71;75.72;100151.73;103405;1274;138123;-68
2022/01/02 11:07:23;;;;;;;0.40;0.30;;;;;;;9.71;75.68;100147.84;103406;1274;107950;-68
2022/01/02 11:09:55;;;;;;;0.40;0.30;;;;;;;9.74;75.73;100139.42;103265;1274;94269;-68
2022/01/02 11:12:27;;;;;;;0.40;0.30;;;;;;;9.83;75.45;100136.16;103116;1274;138879;-68
2022/01/02 11:14:55;;;;;;;0.40;0.30;;;;;;;9.86;75.37;100127.91;103271;1274;108807;-66
2022/01/02 11:17:23;;;;;;;0.40;0.30;;;;;;;9.95;75.29;100130.35;104354;1274;139742;-65
2022/01/02 11:19:51;;;;;;;0.40;0.30;;;;;;;9.96;75.00;100120.37;103336;1274;94363;-67
2022/01/02 11:22:34;;;;;;;0.40;0.30;;;;;;;9.97;75.08;100125.30;103593;1274;95827;-66
2022/01/02 11:25:08;;;;;;;0.40;0.30;;;;;;;10.05;75.02;100127.76;104734;1274;138092;-67
2022/01/02 11:27:43;;;;;;;0.40;0.30;;;;;;;10.06;74.84;100112.83;103616;1274;108526;-67
2022/01/02 11:30:29;;;;;;;0.40;0.30;;;;;;;10.08;74.81;100098.06;103482;1274;138711;-66
2022/01/02 11:33:01;;;;;;;0.40;0.30;;;;;;;10.12;74.76;100084.27;103706;1274;94420;-66
2022/01/02 11:35:31;;;;;;;0.40;0.30;;;;;;;10.16;74.52;100082.54;103508;1274;138388;-67